sensor_id;sensor_type;location;lat;lon;timestamp;P1;durP1;ratioP1;P2;durP2;ratioP2
44810;SDS011;30526;52.184;4.476;2023-09-12T00:00:55;146.52;;;52.97;;
44810;SDS011;30526;52.184;4.476;2023-09-12T00:03:21;124.32;;;47.28;;
44810;SDS011;30526;52.184;4.476;2023-09-12T00:05:55;106.60;;;44.33;;
44810;SDS011;30526;52.184;4.476;2023-09-12T00:08:21;108.75;;;46.47;;
44810;SDS011;30526;52.184;4.476;2023-09-12T00:10:57;154.60;;;51.00;;
44810;SDS011;30526;52.184;4.476;2023-09-12T00:13:23;147.30;;;52.80;;
44810;SDS011;30526;52.184;4.476;2023-09-12T00:15:49;136.80;;;47.50;;
44810;SDS011;30526;52.184;4.476;2023-09-12T00:18:15;140.05;;;47.40;;
44810;SDS011;30526;52.184;4.476;2023-09-12T00:20:41;147.27;;;47.75;;
44810;SDS011;30526;52.184;4.476;2023-09-12T00:23:07;111.53;;;46.25;;
44810;SDS011;30526;52.184;4.476;2023-09-12T00:25:33;157.18;;;49.75;;
44810;SDS011;30526;52.184;4.476;2023-09-12T00:27:59;153.95;;;49.80;;
44810;SDS011;30526;52.184;4.476;2023-09-12T00:30:25;124.70;;;48.00;;
44810;SDS011;30526;52.184;4.476;2023-09-12T00:32:51;159.77;;;50.33;;
44810;SDS011;30526;52.184;4.476;2023-09-12T00:35:17;119.53;;;44.47;;
44810;SDS011;30526;52.184;4.476;2023-09-12T00:37:43;112.32;;;44.10;;
44810;SDS011;30526;52.184;4.476;2023-09-12T00:40:09;140.43;;;45.05;;
44810;SDS011;30526;52.184;4.476;2023-09-12T00:42:35;129.73;;;46.42;;
44810;SDS011;30526;52.184;4.476;2023-09-12T00:45:01;128.65;;;44.67;;
44810;SDS011;30526;52.184;4.476;2023-09-12T00:47:28;121.65;;;46.08;;
44810;SDS011;30526;52.184;4.476;2023-09-12T00:49:55;93.07;;;32.72;;
44810;SDS011;30526;52.184;4.476;2023-09-12T00:52:22;109.28;;;45.10;;
44810;SDS011;30526;52.184;4.476;2023-09-12T00:54:48;122.70;;;42.95;;
44810;SDS011;30526;52.184;4.476;2023-09-12T00:57:14;126.57;;;39.58;;
44810;SDS011;30526;52.184;4.476;2023-09-12T00:59:41;117.10;;;41.13;;
44810;SDS011;30526;52.184;4.476;2023-09-12T01:02:07;129.70;;;42.47;;
44810;SDS011;30526;52.184;4.476;2023-09-12T01:04:33;97.25;;;40.50;;
44810;SDS011;30526;52.184;4.476;2023-09-12T01:07:00;115.72;;;39.92;;
44810;SDS011;30526;52.184;4.476;2023-09-12T01:09:26;94.43;;;40.40;;
44810;SDS011;30526;52.184;4.476;2023-09-12T01:11:55;111.07;;;43.03;;
44810;SDS011;30526;52.184;4.476;2023-09-12T01:14:22;148.55;;;44.47;;
44810;SDS011;30526;52.184;4.476;2023-09-12T01:16:48;85.28;;;37.67;;
44810;SDS011;30526;52.184;4.476;2023-09-12T01:19:14;99.47;;;40.97;;
44810;SDS011;30526;52.184;4.476;2023-09-12T01:29:30;108.40;;;39.20;;
44810;SDS011;30526;52.184;4.476;2023-09-12T01:31:56;97.63;;;38.20;;
44810;SDS011;30526;52.184;4.476;2023-09-12T01:34:22;114.03;;;38.22;;
44810;SDS011;30526;52.184;4.476;2023-09-12T01:36:48;109.50;;;38.90;;
44810;SDS011;30526;52.184;4.476;2023-09-12T01:39:14;101.45;;;37.63;;
44810;SDS011;30526;52.184;4.476;2023-09-12T01:41:41;104.38;;;35.08;;
44810;SDS011;30526;52.184;4.476;2023-09-12T01:44:09;92.90;;;36.92;;
44810;SDS011;30526;52.184;4.476;2023-09-12T01:46:36;88.60;;;36.13;;
44810;SDS011;30526;52.184;4.476;2023-09-12T01:49:02;88.28;;;34.60;;
44810;SDS011;30526;52.184;4.476;2023-09-12T01:53:55;97.22;;;35.80;;
44810;SDS011;30526;52.184;4.476;2023-09-12T01:56:22;103.47;;;35.15;;
44810;SDS011;30526;52.184;4.476;2023-09-12T01:58:49;79.25;;;26.60;;
44810;SDS011;30526;52.184;4.476;2023-09-12T02:01:15;108.37;;;35.60;;
44810;SDS011;30526;52.184;4.476;2023-09-12T02:03:41;91.55;;;33.83;;
44810;SDS011;30526;52.184;4.476;2023-09-12T02:06:07;93.72;;;36.75;;
44810;SDS011;30526;52.184;4.476;2023-09-12T02:08:33;77.05;;;32.00;;
44810;SDS011;30526;52.184;4.476;2023-09-12T02:10:59;78.47;;;31.88;;
44810;SDS011;30526;52.184;4.476;2023-09-12T02:13:25;69.00;;;30.42;;
44810;SDS011;30526;52.184;4.476;2023-09-12T02:15:58;102.35;;;33.90;;
44810;SDS011;30526;52.184;4.476;2023-09-12T02:18:24;75.97;;;30.50;;
44810;SDS011;30526;52.184;4.476;2023-09-12T02:20:50;84.72;;;32.05;;
44810;SDS011;30526;52.184;4.476;2023-09-12T02:23:16;63.53;;;29.08;;
44810;SDS011;30526;52.184;4.476;2023-09-12T02:25:42;75.35;;;31.30;;
44810;SDS011;30526;52.184;4.476;2023-09-12T02:28:08;86.00;;;31.02;;
44810;SDS011;30526;52.184;4.476;2023-09-12T02:30:37;85.28;;;32.50;;
44810;SDS011;30526;52.184;4.476;2023-09-12T02:33:05;74.70;;;30.13;;
44810;SDS011;30526;52.184;4.476;2023-09-12T02:35:30;71.38;;;29.67;;
44810;SDS011;30526;52.184;4.476;2023-09-12T02:37:57;80.68;;;30.00;;
44810;SDS011;30526;52.184;4.476;2023-09-12T02:40:23;87.22;;;28.73;;
44810;SDS011;30526;52.184;4.476;2023-09-12T02:42:49;70.00;;;29.63;;
44810;SDS011;30526;52.184;4.476;2023-09-12T02:45:15;61.42;;;28.33;;
44810;SDS011;30526;52.184;4.476;2023-09-12T02:47:41;72.10;;;28.40;;
44810;SDS011;30526;52.184;4.476;2023-09-12T02:50:08;58.70;;;21.67;;
44810;SDS011;30526;52.184;4.476;2023-09-12T02:52:34;78.73;;;29.97;;
44810;SDS011;30526;52.184;4.476;2023-09-12T02:55:00;74.97;;;30.42;;
44810;SDS011;30526;52.184;4.476;2023-09-12T02:57:27;79.30;;;29.20;;
44810;SDS011;30526;52.184;4.476;2023-09-12T02:59:53;90.80;;;31.05;;
44810;SDS011;30526;52.184;4.476;2023-09-12T03:02:19;90.15;;;31.08;;
44810;SDS011;30526;52.184;4.476;2023-09-12T03:04:45;75.78;;;29.75;;
44810;SDS011;30526;52.184;4.476;2023-09-12T03:07:11;79.90;;;29.52;;
44810;SDS011;30526;52.184;4.476;2023-09-12T03:09:37;72.05;;;29.17;;
44810;SDS011;30526;52.184;4.476;2023-09-12T03:12:06;70.85;;;29.73;;
44810;SDS011;30526;52.184;4.476;2023-09-12T03:14:32;84.20;;;29.77;;
44810;SDS011;30526;52.184;4.476;2023-09-12T03:16:58;72.25;;;29.17;;
44810;SDS011;30526;52.184;4.476;2023-09-12T03:19:24;92.53;;;30.52;;
44810;SDS011;30526;52.184;4.476;2023-09-12T03:21:50;89.63;;;30.27;;
44810;SDS011;30526;52.184;4.476;2023-09-12T03:24:16;79.32;;;29.73;;
44810;SDS011;30526;52.184;4.476;2023-09-12T03:26:43;70.95;;;30.85;;
44810;SDS011;30526;52.184;4.476;2023-09-12T03:29:09;77.90;;;28.50;;
44810;SDS011;30526;52.184;4.476;2023-09-12T03:31:35;79.47;;;27.67;;
44810;SDS011;30526;52.184;4.476;2023-09-12T03:34:02;73.97;;;29.42;;
44810;SDS011;30526;52.184;4.476;2023-09-12T03:36:28;72.07;;;28.00;;
44810;SDS011;30526;52.184;4.476;2023-09-12T03:38:54;84.75;;;30.88;;
44810;SDS011;30526;52.184;4.476;2023-09-12T03:41:20;73.55;;;29.25;;
44810;SDS011;30526;52.184;4.476;2023-09-12T03:43:50;80.55;;;30.25;;
44810;SDS011;30526;52.184;4.476;2023-09-12T03:46:16;66.97;;;28.02;;
44810;SDS011;30526;52.184;4.476;2023-09-12T03:48:42;75.07;;;29.23;;
44810;SDS011;30526;52.184;4.476;2023-09-12T03:51:08;74.63;;;29.10;;
44810;SDS011;30526;52.184;4.476;2023-09-12T03:53:34;71.78;;;29.63;;
44810;SDS011;30526;52.184;4.476;2023-09-12T03:56:00;72.57;;;29.98;;
44810;SDS011;30526;52.184;4.476;2023-09-12T03:58:26;84.18;;;31.42;;
44810;SDS011;30526;52.184;4.476;2023-09-12T04:00:52;95.82;;;32.95;;
44810;SDS011;30526;52.184;4.476;2023-09-12T04:03:18;93.10;;;31.73;;
44810;SDS011;30526;52.184;4.476;2023-09-12T04:08:11;85.30;;;27.63;;
44810;SDS011;30526;52.184;4.476;2023-09-12T04:10:37;66.60;;;27.27;;
44810;SDS011;30526;52.184;4.476;2023-09-12T04:13:03;64.20;;;27.38;;
44810;SDS011;30526;52.184;4.476;2023-09-12T04:15:30;76.45;;;28.83;;
44810;SDS011;30526;52.184;4.476;2023-09-12T04:17:56;82.18;;;29.63;;
44810;SDS011;30526;52.184;4.476;2023-09-12T04:20:22;69.82;;;29.02;;
44810;SDS011;30526;52.184;4.476;2023-09-12T04:22:48;85.13;;;29.40;;
44810;SDS011;30526;52.184;4.476;2023-09-12T04:25:14;82.85;;;30.52;;
44810;SDS011;30526;52.184;4.476;2023-09-12T04:27:41;63.38;;;26.25;;
44810;SDS011;30526;52.184;4.476;2023-09-12T04:30:07;70.00;;;27.02;;
44810;SDS011;30526;52.184;4.476;2023-09-12T04:32:33;72.10;;;31.02;;
44810;SDS011;30526;52.184;4.476;2023-09-12T04:34:59;66.10;;;26.95;;
44810;SDS011;30526;52.184;4.476;2023-09-12T04:37:25;70.57;;;29.10;;
44810;SDS011;30526;52.184;4.476;2023-09-12T04:39:51;79.72;;;29.73;;
44810;SDS011;30526;52.184;4.476;2023-09-12T04:42:17;73.38;;;30.10;;
44810;SDS011;30526;52.184;4.476;2023-09-12T04:44:43;75.15;;;28.73;;
44810;SDS011;30526;52.184;4.476;2023-09-12T04:47:09;68.78;;;27.73;;
44810;SDS011;30526;52.184;4.476;2023-09-12T04:49:35;66.47;;;27.33;;
44810;SDS011;30526;52.184;4.476;2023-09-12T04:52:02;78.00;;;30.40;;
44810;SDS011;30526;52.184;4.476;2023-09-12T04:54:28;74.57;;;28.38;;
44810;SDS011;30526;52.184;4.476;2023-09-12T04:56:54;79.80;;;28.42;;
44810;SDS011;30526;52.184;4.476;2023-09-12T04:59:20;61.17;;;28.77;;
44810;SDS011;30526;52.184;4.476;2023-09-12T05:01:46;62.88;;;27.88;;
44810;SDS011;30526;52.184;4.476;2023-09-12T05:04:12;77.82;;;28.90;;
44810;SDS011;30526;52.184;4.476;2023-09-12T05:06:38;69.32;;;28.83;;
44810;SDS011;30526;52.184;4.476;2023-09-12T05:09:05;68.03;;;29.50;;
44810;SDS011;30526;52.184;4.476;2023-09-12T05:11:34;72.78;;;29.38;;
44810;SDS011;30526;52.184;4.476;2023-09-12T05:14:00;71.65;;;28.35;;
44810;SDS011;30526;52.184;4.476;2023-09-12T05:16:28;83.70;;;34.72;;
44810;SDS011;30526;52.184;4.476;2023-09-12T05:18:54;87.20;;;34.38;;
44810;SDS011;30526;52.184;4.476;2023-09-12T05:21:21;81.35;;;32.85;;
44810;SDS011;30526;52.184;4.476;2023-09-12T05:23:47;82.03;;;32.92;;
44810;SDS011;30526;52.184;4.476;2023-09-12T05:26:13;98.70;;;33.60;;
44810;SDS011;30526;52.184;4.476;2023-09-12T05:28:39;80.45;;;33.60;;
44810;SDS011;30526;52.184;4.476;2023-09-12T05:31:05;93.13;;;35.60;;
44810;SDS011;30526;52.184;4.476;2023-09-12T05:33:31;83.00;;;32.67;;
44810;SDS011;30526;52.184;4.476;2023-09-12T05:35:57;86.93;;;33.40;;
44810;SDS011;30526;52.184;4.476;2023-09-12T05:38:23;103.15;;;37.45;;
44810;SDS011;30526;52.184;4.476;2023-09-12T05:40:49;100.53;;;34.80;;
44810;SDS011;30526;52.184;4.476;2023-09-12T05:43:16;99.25;;;35.25;;
44810;SDS011;30526;52.184;4.476;2023-09-12T05:45:42;86.07;;;34.17;;
44810;SDS011;30526;52.184;4.476;2023-09-12T05:48:08;83.93;;;34.35;;
44810;SDS011;30526;52.184;4.476;2023-09-12T05:50:34;100.10;;;33.95;;
44810;SDS011;30526;52.184;4.476;2023-09-12T05:53:01;68.50;;;23.60;;
44810;SDS011;30526;52.184;4.476;2023-09-12T05:55:27;79.90;;;31.60;;
44810;SDS011;30526;52.184;4.476;2023-09-12T05:57:53;86.80;;;31.80;;
44810;SDS011;30526;52.184;4.476;2023-09-12T06:00:19;85.28;;;33.88;;
44810;SDS011;30526;52.184;4.476;2023-09-12T06:02:48;95.93;;;33.47;;
44810;SDS011;30526;52.184;4.476;2023-09-12T06:05:15;93.50;;;35.42;;
44810;SDS011;30526;52.184;4.476;2023-09-12T06:07:41;107.83;;;37.73;;
44810;SDS011;30526;52.184;4.476;2023-09-12T06:10:07;89.75;;;36.60;;
44810;SDS011;30526;52.184;4.476;2023-09-12T06:12:33;101.93;;;37.37;;
44810;SDS011;30526;52.184;4.476;2023-09-12T06:15:01;90.43;;;35.10;;
44810;SDS011;30526;52.184;4.476;2023-09-12T06:17:27;100.03;;;37.40;;
44810;SDS011;30526;52.184;4.476;2023-09-12T06:19:54;95.60;;;35.83;;
44810;SDS011;30526;52.184;4.476;2023-09-12T06:22:20;86.13;;;34.75;;
44810;SDS011;30526;52.184;4.476;2023-09-12T06:24:47;75.15;;;32.28;;
44810;SDS011;30526;52.184;4.476;2023-09-12T06:27:13;68.70;;;31.45;;
44810;SDS011;30526;52.184;4.476;2023-09-12T06:29:44;66.85;;;31.77;;
44810;SDS011;30526;52.184;4.476;2023-09-12T06:32:10;67.82;;;30.80;;
44810;SDS011;30526;52.184;4.476;2023-09-12T06:34:36;71.60;;;32.78;;
44810;SDS011;30526;52.184;4.476;2023-09-12T06:37:02;77.20;;;34.47;;
44810;SDS011;30526;52.184;4.476;2023-09-12T06:39:29;68.90;;;33.05;;
44810;SDS011;30526;52.184;4.476;2023-09-12T06:41:55;73.30;;;32.53;;
44810;SDS011;30526;52.184;4.476;2023-09-12T06:44:21;68.80;;;31.30;;
44810;SDS011;30526;52.184;4.476;2023-09-12T06:46:47;68.85;;;30.80;;
44810;SDS011;30526;52.184;4.476;2023-09-12T06:49:13;69.32;;;33.60;;
44810;SDS011;30526;52.184;4.476;2023-09-12T06:51:39;70.50;;;35.13;;
44810;SDS011;30526;52.184;4.476;2023-09-12T06:54:05;71.35;;;33.63;;
44810;SDS011;30526;52.184;4.476;2023-09-12T06:56:31;80.47;;;38.88;;
44810;SDS011;30526;52.184;4.476;2023-09-12T06:58:57;69.03;;;33.97;;
44810;SDS011;30526;52.184;4.476;2023-09-12T07:01:24;66.45;;;32.80;;
44810;SDS011;30526;52.184;4.476;2023-09-12T07:03:50;68.72;;;34.45;;
44810;SDS011;30526;52.184;4.476;2023-09-12T07:06:19;59.42;;;31.00;;
44810;SDS011;30526;52.184;4.476;2023-09-12T07:08:45;60.65;;;32.33;;
44810;SDS011;30526;52.184;4.476;2023-09-12T07:11:11;56.47;;;29.55;;
44810;SDS011;30526;52.184;4.476;2023-09-12T07:13:37;58.55;;;31.17;;
44810;SDS011;30526;52.184;4.476;2023-09-12T07:16:03;58.88;;;31.23;;
44810;SDS011;30526;52.184;4.476;2023-09-12T07:18:30;59.60;;;30.52;;
44810;SDS011;30526;52.184;4.476;2023-09-12T07:21:01;62.38;;;31.02;;
44810;SDS011;30526;52.184;4.476;2023-09-12T07:23:27;56.63;;;29.27;;
44810;SDS011;30526;52.184;4.476;2023-09-12T07:25:54;59.13;;;29.97;;
44810;SDS011;30526;52.184;4.476;2023-09-12T07:28:22;57.70;;;27.52;;
44810;SDS011;30526;52.184;4.476;2023-09-12T07:30:48;54.30;;;26.45;;
44810;SDS011;30526;52.184;4.476;2023-09-12T07:33:14;46.47;;;24.40;;
44810;SDS011;30526;52.184;4.476;2023-09-12T07:35:40;51.10;;;23.77;;
44810;SDS011;30526;52.184;4.476;2023-09-12T07:38:06;54.53;;;27.15;;
44810;SDS011;30526;52.184;4.476;2023-09-12T07:40:33;41.93;;;23.27;;
44810;SDS011;30526;52.184;4.476;2023-09-12T07:42:59;41.78;;;23.73;;
44810;SDS011;30526;52.184;4.476;2023-09-12T07:45:25;46.35;;;25.50;;
44810;SDS011;30526;52.184;4.476;2023-09-12T07:47:51;49.53;;;26.50;;
44810;SDS011;30526;52.184;4.476;2023-09-12T07:50:17;53.08;;;24.83;;
44810;SDS011;30526;52.184;4.476;2023-09-12T07:52:43;52.45;;;25.08;;
44810;SDS011;30526;52.184;4.476;2023-09-12T07:55:09;52.35;;;26.80;;
44810;SDS011;30526;52.184;4.476;2023-09-12T07:57:35;50.28;;;24.77;;
44810;SDS011;30526;52.184;4.476;2023-09-12T08:00:02;53.73;;;24.50;;
44810;SDS011;30526;52.184;4.476;2023-09-12T08:02:30;49.42;;;25.60;;
44810;SDS011;30526;52.184;4.476;2023-09-12T08:04:56;52.83;;;25.20;;
44810;SDS011;30526;52.184;4.476;2023-09-12T08:07:22;52.08;;;26.65;;
44810;SDS011;30526;52.184;4.476;2023-09-12T08:09:49;50.70;;;28.58;;
44810;SDS011;30526;52.184;4.476;2023-09-12T08:12:15;49.20;;;26.33;;
44810;SDS011;30526;52.184;4.476;2023-09-12T08:14:41;51.78;;;26.50;;
44810;SDS011;30526;52.184;4.476;2023-09-12T08:17:07;39.83;;;25.13;;
44810;SDS011;30526;52.184;4.476;2023-09-12T08:19:33;43.13;;;24.25;;
44810;SDS011;30526;52.184;4.476;2023-09-12T08:21:59;42.88;;;23.73;;
44810;SDS011;30526;52.184;4.476;2023-09-12T08:24:25;41.28;;;23.50;;
44810;SDS011;30526;52.184;4.476;2023-09-12T08:26:51;39.65;;;22.88;;
44810;SDS011;30526;52.184;4.476;2023-09-12T08:29:18;34.03;;;22.45;;
44810;SDS011;30526;52.184;4.476;2023-09-12T08:31:44;38.90;;;22.08;;
44810;SDS011;30526;52.184;4.476;2023-09-12T08:34:11;31.23;;;20.75;;
44810;SDS011;30526;52.184;4.476;2023-09-12T08:36:37;35.58;;;20.98;;
44810;SDS011;30526;52.184;4.476;2023-09-12T08:39:03;33.50;;;19.63;;
44810;SDS011;30526;52.184;4.476;2023-09-12T08:41:32;39.60;;;21.17;;
44810;SDS011;30526;52.184;4.476;2023-09-12T08:43:58;32.97;;;21.20;;
44810;SDS011;30526;52.184;4.476;2023-09-12T08:46:24;33.38;;;21.52;;
44810;SDS011;30526;52.184;4.476;2023-09-12T08:48:50;32.63;;;22.48;;
44810;SDS011;30526;52.184;4.476;2023-09-12T08:51:17;34.35;;;22.27;;
44810;SDS011;30526;52.184;4.476;2023-09-12T08:53:43;35.25;;;22.92;;
44810;SDS011;30526;52.184;4.476;2023-09-12T08:56:09;42.33;;;22.67;;
44810;SDS011;30526;52.184;4.476;2023-09-12T08:58:36;35.40;;;20.53;;
44810;SDS011;30526;52.184;4.476;2023-09-12T09:01:03;33.65;;;22.23;;
44810;SDS011;30526;52.184;4.476;2023-09-12T09:03:29;36.15;;;21.08;;
44810;SDS011;30526;52.184;4.476;2023-09-12T09:05:55;30.02;;;18.50;;
44810;SDS011;30526;52.184;4.476;2023-09-12T09:08:21;39.22;;;21.75;;
44810;SDS011;30526;52.184;4.476;2023-09-12T09:10:55;34.85;;;20.70;;
44810;SDS011;30526;52.184;4.476;2023-09-12T09:13:21;34.97;;;19.25;;
44810;SDS011;30526;52.184;4.476;2023-09-12T09:15:47;26.00;;;18.02;;
44810;SDS011;30526;52.184;4.476;2023-09-12T09:18:13;23.73;;;15.02;;
44810;SDS011;30526;52.184;4.476;2023-09-12T09:20:39;27.40;;;16.83;;
44810;SDS011;30526;52.184;4.476;2023-09-12T09:23:06;27.60;;;17.45;;
44810;SDS011;30526;52.184;4.476;2023-09-12T09:25:38;28.08;;;17.35;;
44810;SDS011;30526;52.184;4.476;2023-09-12T09:28:05;26.83;;;13.98;;
44810;SDS011;30526;52.184;4.476;2023-09-12T09:30:41;29.13;;;16.03;;
44810;SDS011;30526;52.184;4.476;2023-09-12T09:33:08;26.10;;;16.25;;
44810;SDS011;30526;52.184;4.476;2023-09-12T09:35:35;20.77;;;13.85;;
44810;SDS011;30526;52.184;4.476;2023-09-12T09:38:02;23.02;;;14.20;;
44810;SDS011;30526;52.184;4.476;2023-09-12T09:40:28;20.45;;;13.82;;
44810;SDS011;30526;52.184;4.476;2023-09-12T09:42:55;23.63;;;13.70;;
44810;SDS011;30526;52.184;4.476;2023-09-12T09:47:49;24.03;;;14.37;;
44810;SDS011;30526;52.184;4.476;2023-09-12T09:50:16;26.13;;;14.57;;
44810;SDS011;30526;52.184;4.476;2023-09-12T09:52:45;22.27;;;12.05;;
44810;SDS011;30526;52.184;4.476;2023-09-12T09:55:13;22.15;;;10.95;;
44810;SDS011;30526;52.184;4.476;2023-09-12T09:57:41;16.45;;;9.70;;
44810;SDS011;30526;52.184;4.476;2023-09-12T10:00:08;17.55;;;9.98;;
44810;SDS011;30526;52.184;4.476;2023-09-12T10:02:39;26.02;;;14.50;;
44810;SDS011;30526;52.184;4.476;2023-09-12T10:05:06;20.58;;;11.60;;
44810;SDS011;30526;52.184;4.476;2023-09-12T10:07:37;20.40;;;13.02;;
44810;SDS011;30526;52.184;4.476;2023-09-12T10:10:03;19.80;;;9.48;;
44810;SDS011;30526;52.184;4.476;2023-09-12T10:12:35;20.48;;;8.40;;
44810;SDS011;30526;52.184;4.476;2023-09-12T10:15:01;15.63;;;7.75;;
44810;SDS011;30526;52.184;4.476;2023-09-12T10:17:35;14.07;;;7.10;;
44810;SDS011;30526;52.184;4.476;2023-09-12T10:20:02;15.00;;;7.90;;
44810;SDS011;30526;52.184;4.476;2023-09-12T10:22:43;14.13;;;7.13;;
44810;SDS011;30526;52.184;4.476;2023-09-12T10:25:15;13.80;;;7.70;;
44810;SDS011;30526;52.184;4.476;2023-09-12T10:27:41;15.60;;;7.95;;
44810;SDS011;30526;52.184;4.476;2023-09-12T10:30:07;17.70;;;9.05;;
44810;SDS011;30526;52.184;4.476;2023-09-12T10:32:33;19.47;;;8.80;;
44810;SDS011;30526;52.184;4.476;2023-09-12T10:35:00;15.35;;;9.30;;
44810;SDS011;30526;52.184;4.476;2023-09-12T10:37:28;20.13;;;8.60;;
44810;SDS011;30526;52.184;4.476;2023-09-12T10:39:55;19.08;;;8.45;;
44810;SDS011;30526;52.184;4.476;2023-09-12T10:42:21;16.10;;;8.35;;
44810;SDS011;30526;52.184;4.476;2023-09-12T10:44:49;13.52;;;8.00;;
44810;SDS011;30526;52.184;4.476;2023-09-12T10:47:16;13.85;;;7.60;;
44810;SDS011;30526;52.184;4.476;2023-09-12T10:49:45;18.63;;;8.23;;
44810;SDS011;30526;52.184;4.476;2023-09-12T10:52:23;11.68;;;7.63;;
44810;SDS011;30526;52.184;4.476;2023-09-12T10:54:49;13.57;;;8.00;;
44810;SDS011;30526;52.184;4.476;2023-09-12T10:57:15;17.25;;;8.20;;
44810;SDS011;30526;52.184;4.476;2023-09-12T11:00:09;16.38;;;8.32;;
44810;SDS011;30526;52.184;4.476;2023-09-12T11:02:41;13.20;;;7.68;;
44810;SDS011;30526;52.184;4.476;2023-09-12T11:05:51;20.40;;;8.20;;
44810;SDS011;30526;52.184;4.476;2023-09-12T11:07:59;16.40;;;8.05;;
44810;SDS011;30526;52.184;4.476;2023-09-12T11:10:25;16.20;;;7.75;;
44810;SDS011;30526;52.184;4.476;2023-09-12T11:12:52;21.58;;;7.28;;
44810;SDS011;30526;52.184;4.476;2023-09-12T11:17:45;12.83;;;7.67;;
44810;SDS011;30526;52.184;4.476;2023-09-12T11:20:12;15.30;;;7.40;;
44810;SDS011;30526;52.184;4.476;2023-09-12T11:25:20;14.13;;;6.53;;
44810;SDS011;30526;52.184;4.476;2023-09-12T11:30:20;15.13;;;6.97;;
44810;SDS011;30526;52.184;4.476;2023-09-12T11:32:47;14.52;;;6.40;;
44810;SDS011;30526;52.184;4.476;2023-09-12T11:35:15;14.25;;;6.75;;
44810;SDS011;30526;52.184;4.476;2023-09-12T11:37:50;12.50;;;6.40;;
44810;SDS011;30526;52.184;4.476;2023-09-12T11:40:17;11.23;;;6.23;;
44810;SDS011;30526;52.184;4.476;2023-09-12T11:42:47;11.65;;;5.95;;
44810;SDS011;30526;52.184;4.476;2023-09-12T11:45:20;14.90;;;6.43;;
44810;SDS011;30526;52.184;4.476;2023-09-12T11:47:47;9.48;;;5.22;;
44810;SDS011;30526;52.184;4.476;2023-09-12T11:50:29;10.70;;;5.55;;
44810;SDS011;30526;52.184;4.476;2023-09-12T11:53:08;11.93;;;5.88;;
44810;SDS011;30526;52.184;4.476;2023-09-12T11:55:42;11.75;;;5.95;;
44810;SDS011;30526;52.184;4.476;2023-09-12T11:58:09;15.30;;;5.90;;
44810;SDS011;30526;52.184;4.476;2023-09-12T12:00:36;14.07;;;5.47;;
44810;SDS011;30526;52.184;4.476;2023-09-12T12:03:02;14.30;;;7.40;;
44810;SDS011;30526;52.184;4.476;2023-09-12T12:05:29;11.77;;;5.75;;
44810;SDS011;30526;52.184;4.476;2023-09-12T12:07:55;17.17;;;6.20;;
44810;SDS011;30526;52.184;4.476;2023-09-12T12:10:23;17.13;;;5.90;;
44810;SDS011;30526;52.184;4.476;2023-09-12T12:12:52;10.25;;;5.70;;
44810;SDS011;30526;52.184;4.476;2023-09-12T12:15:18;11.35;;;6.00;;
44810;SDS011;30526;52.184;4.476;2023-09-12T12:17:44;13.90;;;6.27;;
44810;SDS011;30526;52.184;4.476;2023-09-12T12:20:10;13.05;;;5.38;;
44810;SDS011;30526;52.184;4.476;2023-09-12T12:22:39;10.70;;;4.85;;
44810;SDS011;30526;52.184;4.476;2023-09-12T12:25:06;8.75;;;4.90;;
44810;SDS011;30526;52.184;4.476;2023-09-12T12:27:34;9.77;;;4.63;;
44810;SDS011;30526;52.184;4.476;2023-09-12T12:30:00;10.00;;;5.93;;
44810;SDS011;30526;52.184;4.476;2023-09-12T12:32:26;11.13;;;4.30;;
44810;SDS011;30526;52.184;4.476;2023-09-12T12:34:52;13.85;;;5.95;;
44810;SDS011;30526;52.184;4.476;2023-09-12T12:37:18;8.77;;;4.88;;
44810;SDS011;30526;52.184;4.476;2023-09-12T12:39:44;12.27;;;5.50;;
44810;SDS011;30526;52.184;4.476;2023-09-12T12:42:10;12.15;;;5.30;;
44810;SDS011;30526;52.184;4.476;2023-09-12T12:44:36;8.50;;;4.82;;
44810;SDS011;30526;52.184;4.476;2023-09-12T12:47:06;9.88;;;5.22;;
44810;SDS011;30526;52.184;4.476;2023-09-12T12:49:36;11.13;;;5.15;;
44810;SDS011;30526;52.184;4.476;2023-09-12T12:52:04;8.45;;;5.45;;
44810;SDS011;30526;52.184;4.476;2023-09-12T12:54:33;10.32;;;5.28;;
44810;SDS011;30526;52.184;4.476;2023-09-12T12:56:59;10.50;;;4.45;;
44810;SDS011;30526;52.184;4.476;2023-09-12T12:59:26;6.05;;;3.70;;
44810;SDS011;30526;52.184;4.476;2023-09-12T13:01:54;6.40;;;3.78;;
44810;SDS011;30526;52.184;4.476;2023-09-12T13:04:20;5.25;;;3.58;;
44810;SDS011;30526;52.184;4.476;2023-09-12T13:06:46;4.38;;;3.40;;
44810;SDS011;30526;52.184;4.476;2023-09-12T13:09:12;3.80;;;3.10;;
44810;SDS011;30526;52.184;4.476;2023-09-12T13:11:38;6.30;;;4.03;;
44810;SDS011;30526;52.184;4.476;2023-09-12T13:14:04;8.10;;;3.70;;
44810;SDS011;30526;52.184;4.476;2023-09-12T13:16:34;4.60;;;3.53;;
44810;SDS011;30526;52.184;4.476;2023-09-12T13:19:00;6.33;;;4.30;;
44810;SDS011;30526;52.184;4.476;2023-09-12T13:21:26;6.63;;;4.03;;
44810;SDS011;30526;52.184;4.476;2023-09-12T13:23:53;7.30;;;4.63;;
44810;SDS011;30526;52.184;4.476;2023-09-12T13:26:19;9.13;;;5.17;;
44810;SDS011;30526;52.184;4.476;2023-09-12T13:28:45;21.73;;;6.27;;
44810;SDS011;30526;52.184;4.476;2023-09-12T13:31:11;7.55;;;4.88;;
44810;SDS011;30526;52.184;4.476;2023-09-12T13:33:37;9.07;;;4.73;;
44810;SDS011;30526;52.184;4.476;2023-09-12T13:36:03;9.63;;;5.13;;
44810;SDS011;30526;52.184;4.476;2023-09-12T13:38:29;7.60;;;5.57;;
44810;SDS011;30526;52.184;4.476;2023-09-12T13:40:55;12.00;;;5.87;;
44810;SDS011;30526;52.184;4.476;2023-09-12T13:43:21;9.13;;;5.13;;
44810;SDS011;30526;52.184;4.476;2023-09-12T13:45:48;11.05;;;5.55;;
44810;SDS011;30526;52.184;4.476;2023-09-12T13:48:14;11.23;;;4.70;;
44810;SDS011;30526;52.184;4.476;2023-09-12T13:50:40;9.70;;;5.07;;
44810;SDS011;30526;52.184;4.476;2023-09-12T13:53:08;7.30;;;4.80;;
44810;SDS011;30526;52.184;4.476;2023-09-12T13:55:34;11.05;;;4.88;;
44810;SDS011;30526;52.184;4.476;2023-09-12T13:58:04;11.40;;;5.47;;
44810;SDS011;30526;52.184;4.476;2023-09-12T14:00:31;9.60;;;4.60;;
44810;SDS011;30526;52.184;4.476;2023-09-12T14:02:57;8.80;;;4.50;;
44810;SDS011;30526;52.184;4.476;2023-09-12T14:05:23;9.45;;;4.30;;
44810;SDS011;30526;52.184;4.476;2023-09-12T14:07:49;6.10;;;3.85;;
44810;SDS011;30526;52.184;4.476;2023-09-12T14:10:16;10.43;;;3.75;;
44810;SDS011;30526;52.184;4.476;2023-09-12T14:12:42;8.30;;;4.35;;
44810;SDS011;30526;52.184;4.476;2023-09-12T14:15:09;11.48;;;4.43;;
44810;SDS011;30526;52.184;4.476;2023-09-12T14:17:35;6.72;;;4.32;;
44810;SDS011;30526;52.184;4.476;2023-09-12T14:20:01;6.88;;;3.72;;
44810;SDS011;30526;52.184;4.476;2023-09-12T14:22:28;8.38;;;3.65;;
44810;SDS011;30526;52.184;4.476;2023-09-12T14:24:54;7.43;;;3.95;;
44810;SDS011;30526;52.184;4.476;2023-09-12T14:27:20;9.98;;;4.32;;
44810;SDS011;30526;52.184;4.476;2023-09-12T14:29:46;8.00;;;3.75;;
44810;SDS011;30526;52.184;4.476;2023-09-12T14:32:14;8.38;;;3.97;;
44810;SDS011;30526;52.184;4.476;2023-09-12T14:34:40;5.25;;;3.55;;
44810;SDS011;30526;52.184;4.476;2023-09-12T14:37:06;7.88;;;4.40;;
44810;SDS011;30526;52.184;4.476;2023-09-12T14:39:32;11.52;;;5.32;;
44810;SDS011;30526;52.184;4.476;2023-09-12T14:41:59;8.47;;;5.30;;
44810;SDS011;30526;52.184;4.476;2023-09-12T14:44:27;8.82;;;4.70;;
44810;SDS011;30526;52.184;4.476;2023-09-12T14:46:53;7.30;;;4.10;;